AirNav   Pilot Hours Calculator
 
 1471 users online  

WA57 Bluecreek Airport
Addy, Washington, USA

GOING TO ADDY?


FAA INFORMATION EFFECTIVE 02 DECEMBER 2021

Location

FAA Identifier: WA57
Lat/Long: 48-18-50.2000N 117-50-25.1000W
48-18.836667N 117-50.418333W
48.3139444,-117.8403056
(estimated)
Elevation: 1740 ft. / 530 m (estimated)
From city: 3 miles S of ADDY, WA
Time zone: UTC -8 (UTC -7 during Daylight Saving Time)
Zip code: 99101

Airport Operations

Airport use: Private use. Permission required prior to landing
Activation date: 12/2003
Control tower: no
ARTCC: SEATTLE CENTER
FSS: SEATTLE FLIGHT SERVICE STATION
Attendance: UNATNDD
Wind indicator: yes
Segmented circle: no

Airport Communications

WX AWOS-3 at 63S (14 nm N): 119.275 (509-684-8994)

Nearby radio navigation aids

NDB name  Hdg/Dist  Freq  Var  ID
DEER PARK305/26.636516EDPY -.. .--. -.--
IONE195/29.237921EION .. --- -.

Airport Services

Runway Information

Runway 10/28

Dimensions: 1300 x 40 ft. / 396 x 12 m
Surface: turf
RUNWAY 10  RUNWAY 28
Traffic pattern: leftleft
Obstructions: 60 ft. tree, 100 ft. from runway5 ft. fence

Airport Ownership and Management from official FAA records

Ownership: Privately-owned
Owner: THANE RIFFLE
1755 BLUE CREEK RD W
ADDY, WA 99101
Phone 253 905 9015
Manager: THANE RIFFLE
1755 BLUECREEK RD
ADDY, WA 99101
Phone 253 905 9015

Airport Operational Statistics

Aircraft based on the field: 1
Single engine airplanes: 1
    

Additional Remarks

FOR CD CTC SEATTLE ARTCC AT 253-351-3694.

Instrument Procedures

There are no published instrument procedures at WA57.

Some nearby airports with instrument procedures:

KDEW - Deer Park Airport (27 nm SE)
KSKA - Fairchild Air Force Base (43 nm S)
KSFF - Felts Field Airport (43 nm SE)
KGEG - Spokane International Airport (43 nm S)
2S8 - Wilbur Airport (49 nm SW)
 
Loc | Ops | Rwys | IFR | FBO | Links
Com | Nav | Svcs | Stats | Notes
Area around WA57 (Bluecreek Airport)
 
Road maps at: MapQuest Bing Google
 
Aerial photo
No photo
 
Sectional chart

 
Airport distance calculator
Flying to Bluecreek Airport? Find the distance to fly.

From to WA57

Sunrise and sunset
Times for 06-Dec-2021
 Local
(UTC-8)
 Zulu
(UTC)
Morning civil twilight06:5214:52
Sunrise07:2815:28
Sunset15:5723:57
Evening civil twilight16:3300:33

Current date and time
Zulu (UTC)  06-Dec-2021 18:01:33
Local (UTC-8)  06-Dec-2021 10:01:33
 
METAR
K63S 
13nm N 
061755Z AUTO 00000KT 1SM BR BKN003 M06/M07 A3011 RMK A01
TAF
KSKA 
43nm S 
061100Z 0611/0717 07006KT 9999 SCT020 SCT025 OVC030 620309 QNH3010INS TEMPO 0611/0612 -SHSN BECMG 0612/0614 VRB06KT 4800 -SN BKN020 OVC030 610209 QNH2999INS TEMPO 0617/0621 3200 BR BKN008 OVC010 620089 BECMG 0701/0703 VRB06KT 1600 BR VCSH OVC005 620058 QNH2997INS BECMG 0704/0705 03004KT 0400 FZFG VV002 620028 QNH2999INS TXM01/0621Z TNM06/0715Z
KSFF 
43nm SE 
061120Z 0612/0712 12005KT P6SM BKN050 OVC070 FM061400 VRB02KT 6SM -SN OVC035 FM061900 VRB03KT 1SM -SN BR OVC015 FM070000 02004KT 2SM BR OVC015 FM070400 VRB04KT 3SM BR BKN010 FM071000 00000KT 1/4SM FZFG OVC007
KGEG 
44nm S 
061409Z 0614/0712 09005KT P6SM -SN BKN050 OVC070 FM061600 12004KT 2SM -SN OVC035 FM061900 04003KT 1SM -SN BR OVC015 FM070000 02004KT 2SM BR OVC015 FM070400 VRB04KT 3SM BR BKN010 FM071000 VRB03KT 1/4SM FZFG OVC004
NOTAMs
Click for the latest NOTAMs
NOTAMs are issued by the DoD/FAA and will open in a separate window not controlled by AirNav.

 

 
 

Would you like to see your business listed on this page?

 If your business provides an interesting product or service to pilots, flight crews, aircraft, or users of the Bluecreek Airport, you should consider listing it here.  To start the listing process, click on the button below
 
Add a business
 

Other Pages about Bluecreek Airport

Update a link
 
Copyright © AirNav, LLC. All rights reserved. Privacy Policy  Contact